createdAt,value
2019-06-26T00:01:27.011Z,99468.81
2019-06-26T00:03:54.711Z,99465.65
2019-06-26T00:06:22.327Z,99473.22
2019-06-26T00:08:50.001Z,99479.20
2019-06-26T00:11:17.661Z,99478.05
2019-06-26T00:13:45.478Z,99475.77
2019-06-26T00:16:13.512Z,99474.23
2019-06-26T00:18:40.933Z,99484.56
2019-06-26T00:21:08.289Z,99486.17
2019-06-26T00:23:36.046Z,99484.63
2019-06-26T00:26:03.536Z,99488.20
2019-06-26T00:28:30.887Z,99481.94
2019-06-26T00:30:58.527Z,99485.02
2019-06-26T00:33:25.854Z,99486.92
2019-06-26T00:35:53.602Z,99484.44
2019-06-26T00:38:21.323Z,99485.57
2019-06-26T00:40:49.614Z,99490.08
2019-06-26T00:43:17.230Z,99496.80
2019-06-26T00:45:44.926Z,99492.78
2019-06-26T00:48:13.151Z,99493.64
2019-06-26T00:50:40.855Z,99494.33
2019-06-26T00:53:08.327Z,99487.06
2019-06-26T00:55:36.333Z,99489.70
2019-06-26T00:58:03.967Z,99495.52
2019-06-26T01:00:40.543Z,99492.34
2019-06-26T01:03:08.406Z,99493.05
2019-06-26T01:05:36.141Z,99503.12
2019-06-26T01:08:03.770Z,99501.27
2019-06-26T01:10:31.431Z,99500.20
2019-06-26T01:12:58.725Z,99494.41
2019-06-26T01:15:26.316Z,99503.13
2019-06-26T01:17:53.662Z,99499.13
2019-06-26T01:20:21.603Z,99502.83
2019-06-26T01:22:49.192Z,99503.60
2019-06-26T01:25:16.980Z,99122.38
2019-06-26T01:27:44.811Z,99500.34
2019-06-26T01:30:12.422Z,99500.13
2019-06-26T01:32:39.921Z,99497.97
2019-06-26T01:35:08.060Z,99501.45
2019-06-26T01:37:35.037Z,99513.37
2019-06-26T01:40:02.737Z,99447.40
2019-06-26T01:42:29.967Z,99501.49
2019-06-26T01:44:58.088Z,99297.02
2019-06-26T01:47:25.258Z,99499.46
2019-06-26T01:49:52.629Z,99513.66
2019-06-26T01:52:19.480Z,99504.80
2019-06-26T01:54:47.112Z,99507.34
2019-06-26T01:57:14.845Z,99509.87
2019-06-26T01:59:42.264Z,99514.56
2019-06-26T02:02:09.690Z,99515.58
2019-06-26T02:04:37.717Z,99507.19
2019-06-26T02:07:05.155Z,99508.20
2019-06-26T02:09:33.192Z,99513.76
2019-06-26T02:12:00.683Z,99513.23
2019-06-26T02:14:31.481Z,99509.44
2019-06-26T02:16:56.427Z,99510.64
2019-06-26T02:19:24.120Z,99505.95
2019-06-26T02:21:51.738Z,99510.76
2019-06-26T02:24:19.373Z,99506.28
2019-06-26T02:26:47.156Z,99512.31
2019-06-26T02:29:14.705Z,99509.05
2019-06-26T02:31:41.793Z,99505.89
2019-06-26T02:34:09.387Z,99511.13
2019-06-26T02:36:36.344Z,99506.13
2019-06-26T02:39:05.642Z,99336.00
2019-06-26T02:41:33.209Z,99511.39
2019-06-26T02:44:00.999Z,99508.33
2019-06-26T02:46:28.703Z,99513.23
2019-06-26T02:48:56.092Z,99510.30
2019-06-26T02:51:23.503Z,99515.88
2019-06-26T02:53:50.773Z,99510.20
2019-06-26T02:56:18.437Z,99511.50
2019-06-26T02:58:46.035Z,99471.88
2019-06-26T03:01:13.763Z,99506.47
2019-06-26T03:03:41.526Z,99507.89
2019-06-26T03:06:09.223Z,99514.55
2019-06-26T03:08:37.071Z,99506.59
2019-06-26T03:11:04.939Z,99508.11
2019-06-26T03:13:32.813Z,99511.63
2019-06-26T03:16:00.980Z,99517.39
2019-06-26T03:18:28.887Z,99516.06
2019-06-26T03:20:56.826Z,99521.73
2019-06-26T03:23:24.962Z,99512.67
2019-06-26T03:25:52.660Z,99515.52
2019-06-26T03:28:19.612Z,99511.40
2019-06-26T03:30:47.165Z,99513.23
2019-06-26T03:33:15.230Z,99519.89
2019-06-26T03:35:43.006Z,99527.20
2019-06-26T03:38:10.625Z,99525.56
2019-06-26T03:40:38.403Z,99528.82
2019-06-26T03:43:05.461Z,99523.83
2019-06-26T03:45:32.343Z,99519.67
2019-06-26T03:48:00.196Z,99519.98
2019-06-26T03:50:27.409Z,99525.66
2019-06-26T03:52:54.291Z,99524.23
2019-06-26T03:55:22.184Z,99528.27
2019-06-26T03:57:49.659Z,99524.70
2019-06-26T04:00:20.246Z,99521.95
2019-06-26T04:02:47.887Z,99528.95
2019-06-26T04:05:15.852Z,99543.22
2019-06-26T04:07:43.555Z,99534.06
2019-06-26T04:10:10.780Z,99537.31
2019-06-26T04:12:38.034Z,99536.89
2019-06-26T04:15:06.200Z,99542.88
2019-06-26T04:17:33.768Z,99541.77
2019-06-26T04:20:01.615Z,99548.52
2019-06-26T04:22:29.401Z,99550.16
2019-06-26T04:24:56.506Z,99536.84
2019-06-26T04:27:24.264Z,99544.16
2019-06-26T04:29:52.094Z,99550.24
2019-06-26T04:32:19.208Z,99542.84
2019-06-26T04:34:46.812Z,99547.75
2019-06-26T04:37:13.759Z,99551.22
2019-06-26T04:39:41.142Z,99554.89
2019-06-26T04:42:09.011Z,99552.89
2019-06-26T04:44:35.824Z,99560.30
2019-06-26T04:47:02.955Z,99551.85
2019-06-26T04:49:30.773Z,99361.41
2019-06-26T04:52:02.011Z,99557.67
2019-06-26T04:54:29.428Z,99559.70
2019-06-26T04:56:57.266Z,99562.02
2019-06-26T04:59:24.452Z,99565.92
2019-06-26T05:01:52.184Z,99560.86
2019-06-26T05:04:20.357Z,99559.39
2019-06-26T05:06:48.263Z,99571.48
2019-06-26T05:09:15.770Z,99562.91
2019-06-26T05:11:43.429Z,99572.25
2019-06-26T05:14:10.049Z,99566.73
2019-06-26T05:16:37.794Z,99564.48
2019-06-26T05:19:04.894Z,99392.56
2019-06-26T05:21:31.838Z,99567.99
2019-06-26T05:23:59.576Z,99499.05
2019-06-26T05:26:27.187Z,99577.77
2019-06-26T05:28:54.103Z,99587.25
2019-06-26T05:31:21.750Z,99402.19
2019-06-26T05:33:49.330Z,99580.34
2019-06-26T05:36:16.156Z,99585.61
2019-06-26T05:38:43.172Z,99592.74
2019-06-26T05:41:09.894Z,99587.96
2019-06-26T05:43:36.734Z,99591.59
2019-06-26T05:46:04.035Z,99588.91
2019-06-26T05:48:30.993Z,99592.73
2019-06-26T05:50:57.869Z,99589.45
2019-06-26T05:53:25.781Z,99594.78
2019-06-26T05:55:52.507Z,99588.64
2019-06-26T05:58:20.076Z,99591.03
2019-06-26T06:00:47.357Z,99595.23
2019-06-26T06:03:14.434Z,99602.86
2019-06-26T06:05:41.972Z,99593.55
2019-06-26T06:08:09.140Z,99595.35
2019-06-26T06:10:35.858Z,99594.41
2019-06-26T06:13:02.716Z,99594.20
2019-06-26T06:15:29.544Z,99593.08
2019-06-26T06:17:57.042Z,99592.66
2019-06-26T06:20:28.258Z,99601.38
2019-06-26T06:22:55.112Z,99609.16
2019-06-26T06:25:22.062Z,99608.66
2019-06-26T06:27:49.194Z,99604.25
2019-06-26T06:30:16.621Z,99613.07
2019-06-26T06:32:43.443Z,99614.47
2019-06-26T06:35:11.051Z,99617.41
2019-06-26T06:37:38.299Z,99617.06
2019-06-26T06:40:08.227Z,99617.48
2019-06-26T06:42:35.213Z,99609.83
2019-06-26T06:45:03.434Z,99619.28
2019-06-26T06:47:30.499Z,99615.77
2019-06-26T06:49:57.281Z,99620.16
2019-06-26T06:52:24.181Z,99631.89
2019-06-26T06:54:51.408Z,99630.67
2019-06-26T06:57:18.315Z,99622.50
2019-06-26T06:59:46.031Z,99625.95
2019-06-26T07:02:12.743Z,99628.67
2019-06-26T07:04:40.596Z,99624.73
2019-06-26T07:07:07.417Z,99633.75
2019-06-26T07:09:34.266Z,99633.92
2019-06-26T07:12:01.365Z,99633.72
2019-06-26T07:14:28.537Z,99621.45
2019-06-26T07:16:55.359Z,99483.33
2019-06-26T07:19:22.475Z,99628.86
2019-06-26T07:21:50.077Z,99632.11
2019-06-26T07:24:17.454Z,99639.59
2019-06-26T07:26:44.966Z,99636.67
2019-06-26T07:29:11.921Z,99636.42
2019-06-26T07:31:38.874Z,99630.62
2019-06-26T07:34:05.720Z,99641.72
2019-06-26T07:36:32.572Z,99644.23
2019-06-26T07:38:59.896Z,99640.98
2019-06-26T07:41:27.027Z,99651.25
2019-06-26T07:43:53.902Z,99648.60
2019-06-26T07:46:20.607Z,99653.47
2019-06-26T07:48:47.361Z,99647.89
2019-06-26T07:51:14.948Z,99653.09
2019-06-26T07:53:41.864Z,99644.90
2019-06-26T07:56:08.778Z,99506.50
2019-06-26T07:58:35.663Z,99654.52
2019-06-26T08:01:03.433Z,99650.69
2019-06-26T08:03:30.766Z,99639.63
2019-06-26T08:05:58.113Z,99648.14
2019-06-26T08:08:25.297Z,99650.16
2019-06-26T08:10:51.963Z,99645.87
2019-06-26T08:13:18.900Z,99649.28
2019-06-26T08:15:46.716Z,99654.59
2019-06-26T08:18:13.343Z,99652.49
2019-06-26T08:20:51.869Z,99657.44
2019-06-26T08:23:09.958Z,99652.46
2019-06-26T08:25:36.950Z,99657.85
2019-06-26T08:28:04.394Z,99661.62
2019-06-26T08:30:32.199Z,99655.18
2019-06-26T08:32:59.223Z,99655.24
2019-06-26T08:35:26.391Z,99653.52
2019-06-26T08:38:08.907Z,99662.08
2019-06-26T08:40:23.390Z,99668.77
2019-06-26T08:42:50.091Z,99661.08
2019-06-26T08:45:18.020Z,99658.80
2019-06-26T08:47:45.525Z,99664.73
2019-06-26T08:50:12.645Z,99659.95
2019-06-26T08:52:39.762Z,99668.45
2019-06-26T08:55:06.888Z,99669.95
2019-06-26T08:57:33.669Z,99667.91
2019-06-26T09:00:00.527Z,99674.20
2019-06-26T09:02:27.572Z,99672.06
2019-06-26T09:04:55.159Z,99674.69
2019-06-26T09:07:21.960Z,99670.86
2019-06-26T09:09:49.271Z,99671.80
2019-06-26T09:12:16.460Z,99666.81
2019-06-26T09:14:43.194Z,99672.09
2019-06-26T09:17:09.952Z,99667.37
2019-06-26T09:19:37.330Z,99668.59
2019-06-26T09:22:04.286Z,99672.39
2019-06-26T09:24:31.175Z,99668.30
2019-06-26T09:26:58.918Z,99664.52
2019-06-26T09:29:25.911Z,99674.19
2019-06-26T09:31:52.750Z,99667.57
2019-06-26T09:34:20.072Z,99671.73
2019-06-26T09:36:47.028Z,99670.80
2019-06-26T09:39:14.395Z,99674.98
2019-06-26T09:41:41.485Z,99664.14
2019-06-26T09:44:08.753Z,99666.98
2019-06-26T09:46:35.984Z,99671.84
2019-06-26T09:49:08.410Z,99641.93
2019-06-26T09:51:35.881Z,99667.86
2019-06-26T09:54:03.360Z,99669.69
2019-06-26T09:56:30.489Z,99675.13
2019-06-26T09:58:57.329Z,99673.06
2019-06-26T10:01:24.207Z,99676.25
2019-06-26T10:03:51.346Z,99678.61
2019-06-26T10:06:18.335Z,99666.79
2019-06-26T10:08:45.154Z,99672.16
2019-06-26T10:11:12.508Z,99680.21
2019-06-26T10:13:39.556Z,99670.94
2019-06-26T10:16:06.406Z,99679.61
2019-06-26T10:18:33.594Z,99676.61
2019-06-26T10:21:00.208Z,99678.35
2019-06-26T10:23:26.971Z,99671.58
2019-06-26T10:25:53.908Z,99672.73
2019-06-26T10:28:21.160Z,99670.01
2019-06-26T10:30:48.421Z,99670.44
2019-06-26T10:33:15.351Z,99667.05
2019-06-26T10:35:42.555Z,99670.58
2019-06-26T10:38:09.589Z,99678.11
2019-06-26T10:40:36.449Z,99676.09
2019-06-26T10:43:03.362Z,99670.45
2019-06-26T10:45:36.045Z,99679.84
2019-06-26T10:48:01.975Z,99676.71
2019-06-26T10:50:29.677Z,99668.56
2019-06-26T10:52:56.293Z,99668.21
2019-06-26T10:55:23.431Z,99672.22
2019-06-26T10:57:50.252Z,99666.53
2019-06-26T11:00:17.933Z,99671.34
2019-06-26T11:02:45.242Z,99660.66
2019-06-26T11:05:12.373Z,99663.33
2019-06-26T11:07:39.146Z,99656.80
2019-06-26T11:10:11.519Z,99654.47
2019-06-26T11:12:36.242Z,99652.23
2019-06-26T11:15:05.330Z,99642.77
2019-06-26T11:17:32.222Z,99643.83
2019-06-26T11:19:59.528Z,99643.55
2019-06-26T11:22:26.256Z,99644.14
2019-06-26T11:24:53.095Z,99644.14
2019-06-26T11:27:20.672Z,99626.45
2019-06-26T11:29:47.525Z,99645.64
2019-06-26T11:32:14.405Z,99648.55
2019-06-26T11:34:41.992Z,99650.95
2019-06-26T11:37:09.023Z,99644.45
2019-06-26T11:39:35.809Z,99638.40
2019-06-26T11:42:02.790Z,99635.11
2019-06-26T11:44:29.591Z,99636.35
2019-06-26T11:46:56.673Z,99636.35
2019-06-26T11:49:23.436Z,99641.27
2019-06-26T11:51:50.332Z,99640.23
2019-06-26T11:54:17.599Z,99635.53
2019-06-26T11:56:44.737Z,99642.63
2019-06-26T11:59:11.570Z,99636.02
2019-06-26T12:01:39.001Z,99636.80
2019-06-26T12:04:06.490Z,99643.66
2019-06-26T12:06:33.301Z,99637.03
2019-06-26T12:09:01.234Z,99642.94
2019-06-26T12:11:28.039Z,99637.99
2019-06-26T12:13:54.964Z,99634.02
2019-06-26T12:16:22.137Z,99637.98
2019-06-26T12:18:49.050Z,99624.36
2019-06-26T12:21:15.925Z,99614.70
2019-06-26T12:23:43.574Z,99626.61
2019-06-26T12:26:10.617Z,99626.61
2019-06-26T12:28:37.461Z,99619.17
2019-06-26T12:31:04.494Z,99612.41
2019-06-26T12:33:31.630Z,99619.08
2019-06-26T12:35:59.246Z,99488.66
2019-06-26T12:38:26.909Z,99615.02
2019-06-26T12:40:55.596Z,99611.66
2019-06-26T12:43:22.420Z,99610.00
2019-06-26T12:45:49.604Z,99615.70
2019-06-26T12:48:16.831Z,99610.20
2019-06-26T12:50:44.980Z,99601.41
2019-06-26T12:53:12.874Z,99473.59
2019-06-26T12:55:39.801Z,99604.23
2019-06-26T12:58:18.119Z,99609.81
2019-06-26T13:00:42.476Z,99611.66
2019-06-26T13:03:09.135Z,99483.61
2019-06-26T13:05:35.984Z,99607.17
2019-06-26T13:08:03.352Z,99596.58
2019-06-26T13:10:30.276Z,99606.10
2019-06-26T13:12:58.498Z,99586.91
2019-06-26T13:15:26.590Z,99586.91
2019-06-26T13:17:53.366Z,99598.35
2019-06-26T13:20:20.333Z,99597.99
2019-06-26T13:22:47.247Z,99599.03
2019-06-26T13:25:15.894Z,99601.64
2019-06-26T13:27:43.152Z,99603.27
2019-06-26T13:30:10.277Z,99596.20
2019-06-26T13:32:37.406Z,99591.23
2019-06-26T13:35:05.189Z,99602.31
2019-06-26T13:37:32.182Z,99593.08
2019-06-26T13:39:59.122Z,99599.63
2019-06-26T13:42:26.354Z,99595.17
2019-06-26T13:44:53.108Z,99591.25
2019-06-26T13:47:19.974Z,99594.52
2019-06-26T13:49:47.643Z,99594.80
2019-06-26T13:52:14.795Z,99601.81
2019-06-26T13:54:41.786Z,99426.83
2019-06-26T13:57:08.502Z,99470.48
2019-06-26T13:59:35.753Z,99597.49
2019-06-26T14:02:04.569Z,99477.87
2019-06-26T14:04:31.410Z,99586.75
2019-06-26T14:06:58.961Z,99331.33
2019-06-26T14:09:25.702Z,99331.33
2019-06-26T14:11:52.442Z,99570.08
2019-06-26T14:14:20.577Z,99572.70
2019-06-26T14:16:48.366Z,99559.22
2019-06-26T14:19:15.111Z,99567.91
2019-06-26T14:21:42.412Z,99567.91
2019-06-26T14:24:09.182Z,99575.42
2019-06-26T14:26:36.192Z,99575.42
2019-06-26T14:29:03.001Z,99574.47
2019-06-26T14:31:30.551Z,99428.77
2019-06-26T14:33:57.385Z,99575.34
2019-06-26T14:36:24.255Z,99575.48
2019-06-26T14:38:52.070Z,99567.04
2019-06-26T14:41:19.042Z,99568.02
2019-06-26T14:43:45.770Z,99566.65
2019-06-26T14:46:12.590Z,99571.52
2019-06-26T14:48:40.305Z,99566.00
2019-06-26T14:51:07.245Z,99555.25
2019-06-26T14:53:34.461Z,99555.25
2019-06-26T14:56:01.907Z,99568.02
2019-06-26T14:58:29.022Z,99580.14
2019-06-26T15:00:56.086Z,99565.23
2019-06-26T15:03:22.966Z,99561.34
2019-06-26T15:05:49.800Z,99561.05
2019-06-26T15:08:17.417Z,99551.50
2019-06-26T15:10:44.410Z,99565.17
2019-06-26T15:13:11.511Z,99553.05
2019-06-26T15:15:38.809Z,99547.46
2019-06-26T15:18:05.700Z,99553.11
2019-06-26T15:20:32.870Z,99558.02
2019-06-26T15:22:59.829Z,99553.53
2019-06-26T15:25:27.307Z,99560.84
2019-06-26T15:27:54.025Z,99549.87
2019-06-26T15:30:21.029Z,99542.21
2019-06-26T15:32:48.072Z,99540.68
2019-06-26T15:35:15.262Z,99540.33
2019-06-26T15:37:44.748Z,99543.85
2019-06-26T15:40:13.945Z,99528.55
2019-06-26T15:42:41.281Z,99537.80
2019-06-26T15:45:08.381Z,99530.67
2019-06-26T15:47:35.191Z,99527.70
2019-06-26T15:50:03.367Z,99391.44
2019-06-26T15:52:31.598Z,99541.17
2019-06-26T15:54:58.874Z,99530.78
2019-06-26T15:57:26.177Z,99539.86
2019-06-26T15:59:52.995Z,99534.54
2019-06-26T16:02:19.897Z,99529.89
2019-06-26T16:04:47.956Z,99537.20
2019-06-26T16:07:14.732Z,99543.73
2019-06-26T16:09:41.684Z,99391.99
2019-06-26T16:12:08.420Z,99536.09
2019-06-26T16:14:35.957Z,99534.52
2019-06-26T16:17:04.992Z,99393.66
2019-06-26T16:19:31.754Z,99541.64
2019-06-26T16:21:59.418Z,99539.76
2019-06-26T16:24:29.922Z,99542.50
2019-06-26T16:26:55.024Z,99540.65
2019-06-26T16:29:22.068Z,99541.44
2019-06-26T16:31:50.072Z,99544.61
2019-06-26T16:34:16.813Z,99535.42
2019-06-26T16:36:43.815Z,99538.20
2019-06-26T16:39:11.976Z,99539.23
2019-06-26T16:41:39.206Z,99548.47
2019-06-26T16:44:06.458Z,99537.28
2019-06-26T16:46:34.742Z,99534.41
2019-06-26T16:49:01.939Z,99544.84
2019-06-26T16:51:30.710Z,99538.58
2019-06-26T16:53:58.003Z,99540.00
2019-06-26T16:56:24.861Z,99535.34
2019-06-26T16:58:51.898Z,99547.95
2019-06-26T17:01:18.622Z,99553.78
2019-06-26T17:03:46.307Z,99529.50
2019-06-26T17:06:13.191Z,99536.34
2019-06-26T17:08:40.114Z,99540.37
2019-06-26T17:11:07.312Z,99535.65
2019-06-26T17:13:34.451Z,99538.63
2019-06-26T17:16:01.317Z,99540.69
2019-06-26T17:18:28.482Z,99535.87
2019-06-26T17:20:55.791Z,99541.20
2019-06-26T17:23:22.550Z,99379.53
2019-06-26T17:25:50.396Z,99534.05
2019-06-26T17:28:17.324Z,99542.69
2019-06-26T17:30:44.099Z,99540.36
2019-06-26T17:33:10.931Z,99547.67
2019-06-26T17:35:38.101Z,99540.84
2019-06-26T17:38:04.823Z,99532.25
2019-06-26T17:40:31.780Z,99541.98
2019-06-26T17:43:11.735Z,99534.11
2019-06-26T17:45:27.955Z,99533.55
2019-06-26T17:47:54.691Z,99531.66
2019-06-26T17:50:21.587Z,99532.41
2019-06-26T17:52:48.994Z,99530.52
2019-06-26T17:55:16.126Z,99540.39
2019-06-26T17:57:42.933Z,99542.90
2019-06-26T18:00:12.273Z,99554.68
2019-06-26T18:02:39.086Z,99551.22
2019-06-26T18:05:06.081Z,99556.36
2019-06-26T18:07:33.018Z,99556.61
2019-06-26T18:10:00.080Z,99555.04
2019-06-26T18:12:26.920Z,99440.50
2019-06-26T18:14:53.648Z,99561.08
2019-06-26T18:17:22.286Z,99562.44
2019-06-26T18:19:53.634Z,99553.74
2019-06-26T18:22:18.693Z,99551.73
2019-06-26T18:24:45.494Z,99557.19
2019-06-26T18:27:12.554Z,99558.95
2019-06-26T18:29:39.362Z,99559.18
2019-06-26T18:32:06.368Z,99559.59
2019-06-26T18:34:33.087Z,99558.55
2019-06-26T18:37:00.121Z,99563.92
2019-06-26T18:39:26.843Z,99570.18
2019-06-26T18:41:53.718Z,99567.28
2019-06-26T18:44:20.947Z,99576.80
2019-06-26T18:46:47.566Z,99565.33
2019-06-26T18:49:14.335Z,99395.75
2019-06-26T18:51:41.411Z,99393.23
2019-06-26T18:54:08.868Z,99576.25
2019-06-26T18:56:36.127Z,99574.83
2019-06-26T18:59:03.315Z,99579.38
2019-06-26T19:01:30.140Z,99580.34
2019-06-26T19:03:57.016Z,99579.83
2019-06-26T19:06:24.180Z,99422.56
2019-06-26T19:08:51.189Z,99574.49
2019-06-26T19:11:17.889Z,99594.64
2019-06-26T19:13:45.139Z,99578.97
2019-06-26T19:16:11.973Z,99582.86
2019-06-26T19:18:38.596Z,99591.84
2019-06-26T19:21:06.090Z,99593.38
2019-06-26T19:23:33.410Z,99416.42
2019-06-26T19:26:00.175Z,99596.64
2019-06-26T19:28:26.899Z,99593.05
2019-06-26T19:30:53.932Z,99593.93
2019-06-26T19:33:20.868Z,99608.42
2019-06-26T19:35:48.052Z,99609.34
2019-06-26T19:38:15.522Z,99601.34
2019-06-26T19:40:42.441Z,99610.59
2019-06-26T19:43:11.087Z,99613.64
2019-06-26T19:45:37.993Z,99441.53
2019-06-26T19:48:05.403Z,99617.83
2019-06-26T19:50:32.308Z,99620.84
2019-06-26T19:52:59.173Z,99448.52
2019-06-26T19:55:26.573Z,99632.39
2019-06-26T19:57:53.360Z,99628.25
2019-06-26T20:00:20.214Z,99636.12
2019-06-26T20:02:47.532Z,99637.47
2019-06-26T20:05:14.719Z,99651.98
2019-06-26T20:07:41.539Z,99641.84
2019-06-26T20:10:09.055Z,99642.83
2019-06-26T20:12:35.893Z,99637.02
2019-06-26T20:15:04.268Z,99632.91
2019-06-26T20:17:33.186Z,99343.22
2019-06-26T20:20:00.201Z,99469.23
2019-06-26T20:22:27.542Z,99654.02
2019-06-26T20:24:57.307Z,99645.69
2019-06-26T20:27:24.038Z,99648.83
2019-06-26T20:29:50.825Z,99657.80
2019-06-26T20:32:18.552Z,99661.94
2019-06-26T20:34:45.489Z,99668.61
2019-06-26T20:37:12.476Z,99668.14
2019-06-26T20:39:39.188Z,99668.23
2019-06-26T20:42:06.383Z,99679.83
2019-06-26T20:44:33.333Z,99687.02
2019-06-26T20:47:00.904Z,99681.37
2019-06-26T20:49:28.570Z,99702.32
2019-06-26T20:51:55.604Z,99538.68
2019-06-26T20:54:22.389Z,99701.05
2019-06-26T20:56:49.679Z,99706.55
2019-06-26T20:59:16.415Z,99712.02
2019-06-26T21:01:43.290Z,99713.94
2019-06-26T21:04:10.443Z,99714.52
2019-06-26T21:06:37.537Z,99713.47
2019-06-26T21:09:05.024Z,99724.83
2019-06-26T21:11:31.757Z,99733.39
2019-06-26T21:13:59.196Z,99731.38
2019-06-26T21:16:26.156Z,99730.66
2019-06-26T21:18:53.281Z,99729.97
2019-06-26T21:21:21.686Z,99737.27
2019-06-26T21:23:48.549Z,99748.45
2019-06-26T21:26:15.785Z,99749.81
2019-06-26T21:28:43.066Z,99750.14
2019-06-26T21:31:10.035Z,99747.23
2019-06-26T21:33:37.468Z,99761.48
2019-06-26T21:36:05.223Z,99753.30
2019-06-26T21:38:32.665Z,99725.09
2019-06-26T21:40:59.634Z,99782.82
2019-06-26T21:43:26.629Z,99769.34
2019-06-26T21:45:54.247Z,99780.80
2019-06-26T21:48:21.677Z,99770.97
2019-06-26T21:50:49.432Z,99767.38
2019-06-26T21:53:16.115Z,99773.09
2019-06-26T21:55:43.444Z,99773.48
2019-06-26T21:58:10.530Z,99769.66
2019-06-26T22:00:37.932Z,99783.95
2019-06-26T22:03:05.256Z,99780.83
2019-06-26T22:05:33.315Z,99781.33
2019-06-26T22:08:00.391Z,99783.41
2019-06-26T22:10:27.530Z,99784.46
2019-06-26T22:12:55.229Z,99782.30
2019-06-26T22:15:22.578Z,99782.99
2019-06-26T22:17:50.174Z,99785.30
2019-06-26T22:20:18.231Z,99790.44
2019-06-26T22:22:46.139Z,99809.87
2019-06-26T22:25:13.212Z,99795.78
2019-06-26T22:27:41.075Z,99797.89
2019-06-26T22:30:08.791Z,99799.39
2019-06-26T22:32:36.505Z,99800.92
2019-06-26T22:35:05.025Z,99475.70
2019-06-26T22:37:32.296Z,99793.03
2019-06-26T22:39:59.911Z,99795.31
2019-06-26T22:42:27.539Z,99643.27
2019-06-26T22:44:55.470Z,99793.70
2019-06-26T22:47:22.569Z,99797.67
2019-06-26T22:49:49.792Z,99818.02
2019-06-26T22:52:16.641Z,99813.09
2019-06-26T22:54:43.521Z,99802.98
2019-06-26T22:57:11.439Z,99795.45
2019-06-26T22:59:38.182Z,99806.27
2019-06-26T23:02:05.957Z,99800.08
2019-06-26T23:04:34.032Z,99795.31
2019-06-26T23:07:00.777Z,99793.89
2019-06-26T23:09:28.964Z,99796.45
2019-06-26T23:11:56.623Z,99789.69
2019-06-26T23:14:23.508Z,99792.74
2019-06-26T23:16:51.626Z,99794.05
2019-06-26T23:19:18.372Z,99791.92
2019-06-26T23:21:45.312Z,99788.02
2019-06-26T23:24:12.711Z,99787.72
2019-06-26T23:26:40.309Z,99787.59
2019-06-26T23:29:07.212Z,99794.76
2019-06-26T23:31:34.806Z,99787.70
2019-06-26T23:34:02.121Z,99798.88
2019-06-26T23:36:29.626Z,99792.27
2019-06-26T23:38:57.196Z,99794.52
2019-06-26T23:41:24.949Z,99799.50
2019-06-26T23:43:52.609Z,99796.42
2019-06-26T23:46:19.227Z,99806.88
2019-06-26T23:48:46.560Z,99811.00
2019-06-26T23:51:13.859Z,99809.80
2019-06-26T23:53:41.041Z,99821.33
2019-06-26T23:56:07.862Z,99819.95
2019-06-26T23:58:35.845Z,99818.27
